Time,TemperatureF,DewpointF,PressureIn,WindDirection,WindDirectionDegrees,WindSpeedMPH,WindSpeedGustMPH,Humidity,HourlyPrecipIn,Conditions,Clouds,dailyrainin,SoftwareType,DateUTC
2013-12-07 00:59:00,-2.4,-30.4,28.73,North,0,0.0,3.5,24,0.00,CLR,OVC,0.00,WeatherDisplay:10.37,2013-12-07 05:59:00,
2013-12-07 01:00:00,-2.4,-30.4,28.73,North,0,0.0,3.5,24,0.00,CLR,OVC,0.00,WeatherDisplay:10.37,2013-12-07 06:00:00,
2013-12-07 01:31:00,-2.6,-30.5,28.73,North,0,0.0,3.5,24,0.00,CLR,OVC,0.00,WeatherDisplay:10.37,2013-12-07 06:31:00,
2013-12-07 01:36:00,-4.5,-32.3,28.73,West,267,0.0,3.5,24,0.00,CLR,OVC,0.00,WeatherDisplay:10.37,2013-12-07 06:36:00,
2013-12-07 01:41:00,-4.5,-32.3,28.73,WSW,249,0.0,3.5,24,0.00,CLR,OVC,0.00,WeatherDisplay:10.37,2013-12-07 06:41:00,
2013-12-07 01:46:00,-4.4,-32.1,28.73,WSW,245,0.0,3.5,24,0.00,CLR,OVC,0.00,WeatherDisplay:10.37,2013-12-07 06:46:00,
2013-12-07 01:59:00,-3.8,-31.6,28.73,WSW,238,0.0,3.5,24,0.00,CLR,OVC,0.00,WeatherDisplay:10.37,2013-12-07 06:59:00,
2013-12-07 02:04:00,-5.8,-33.3,28.73,WSW,238,0.0,0.0,24,0.00,CLR,OVC,0.00,WeatherDisplay:10.37,2013-12-07 07:04:00,
2013-12-07 02:25:00,-7.1,-34.4,28.73,SW,235,2.2,4.9,24,0.00,CLR,OVC,0.00,WeatherDisplay:10.37,2013-12-07 07:25:00,
2013-12-07 02:30:00,-6.9,-34.3,28.73,West,261,0.0,0.0,24,0.00,CLR,OVC,0.00,WeatherDisplay:10.37,2013-12-07 07:30:00,
2013-12-07 02:35:00,-6.5,-34.0,28.73,WSW,239,0.0,0.0,24,0.00,CLR,OVC,0.00,WeatherDisplay:10.37,2013-12-07 07:35:00,
2013-12-07 02:40:00,-6.7,-34.1,28.73,SW,222,0.0,0.0,24,0.00,CLR,OVC,0.00,WeatherDisplay:10.37,2013-12-07 07:40:00,
2013-12-07 02:45:00,-6.9,-34.3,28.76,West,264,0.0,0.0,24,0.00,CLR,OVC,0.00,WeatherDisplay:10.37,2013-12-07 07:45:00,
2013-12-07 02:50:00,-7.2,-34.6,28.76,West,264,0.0,0.0,24,0.00,CLR,OVC,0.00,WeatherDisplay:10.37,2013-12-07 07:50:00,
2013-12-07 02:55:00,-7.4,-34.8,28.76,WSW,257,0.0,0.0,24,0.00,CLR,OVC,0.00,WeatherDisplay:10.37,2013-12-07 07:55:00,
2013-12-07 03:00:00,-7.6,-34.9,28.76,SW,214,0.0,0.0,24,0.00,CLR,OVC,0.00,WeatherDisplay:10.37,2013-12-07 08:00:00,
2013-12-07 03:05:00,-7.4,-34.8,28.76,SW,214,0.0,0.0,24,0.00,CLR,OVC,0.00,WeatherDisplay:10.37,2013-12-07 08:05:00,
2013-12-07 03:10:00,-7.8,-35.1,28.76,West,267,0.0,0.0,24,0.00,CLR,OVC,0.00,WeatherDisplay:10.37,2013-12-07 08:10:00,
2013-12-07 03:16:00,-8.0,-35.2,28.76,WSW,240,0.0,3.5,24,0.00,CLR,OVC,0.00,WeatherDisplay:10.37,2013-12-07 08:16:00,
2013-12-07 03:21:00,-8.0,-35.2,28.76,WSW,250,2.2,3.5,24,0.00,CLR,OVC,0.00,WeatherDisplay:10.37,2013-12-07 08:21:00,
2013-12-07 03:26:00,-7.6,-34.9,28.76,WSW,245,0.0,2.3,24,0.00,CLR,OVC,0.00,WeatherDisplay:10.37,2013-12-07 08:26:00,
2013-12-07 03:31:00,-7.2,-34.6,28.76,WSW,253,0.0,3.5,24,0.00,CLR,OVC,0.00,WeatherDisplay:10.37,2013-12-07 08:31:00,
2013-12-07 03:36:00,-7.1,-34.4,28.76,WSW,239,0.0,0.0,24,0.00,CLR,OVC,0.00,WeatherDisplay:10.37,2013-12-07 08:36:00,
2013-12-07 03:41:00,-6.7,-34.1,28.76,West,259,2.7,3.5,24,0.00,CLR,OVC,0.00,WeatherDisplay:10.37,2013-12-07 08:41:00,
2013-12-07 03:46:00,-6.5,-34.0,28.76,WSW,255,0.0,0.0,24,0.00,CLR,OVC,0.00,WeatherDisplay:10.37,2013-12-07 08:46:00,
2013-12-07 03:51:00,-6.3,-33.8,28.76,WSW,251,0.0,3.5,24,0.00,CLR,OVC,0.00,WeatherDisplay:10.37,2013-12-07 08:51:00,
2013-12-07 03:56:00,-6.3,-33.8,28.76,SW,229,0.0,2.2,24,0.00,CLR,OVC,0.00,WeatherDisplay:10.37,2013-12-07 08:56:00,
2013-12-07 04:01:00,-6.2,-33.7,28.76,SW,231,0.0,3.5,24,0.00,CLR,OVC,0.00,WeatherDisplay:10.37,2013-12-07 09:01:00,
2013-12-07 04:06:00,-6.0,-33.5,28.76,WSW,237,0.0,3.5,24,0.00,CLR,OVC,0.00,WeatherDisplay:10.37,2013-12-07 09:06:00,
2013-12-07 04:11:00,-6.0,-33.5,28.76,WSW,258,2.2,4.6,24,0.00,CLR,OVC,0.00,WeatherDisplay:10.37,2013-12-07 09:11:00,
2013-12-07 04:16:00,-5.6,-33.2,28.76,West,262,2.2,3.5,24,0.00,CLR,OVC,0.00,WeatherDisplay:10.37,2013-12-07 09:16:00,
2013-12-07 04:21:00,-5.6,-33.2,28.76,West,281,0.0,3.5,24,0.00,CLR,OVC,0.00,WeatherDisplay:10.37,2013-12-07 09:21:00,
2013-12-07 04:26:00,-5.6,-33.2,28.76,West,269,3.1,3.5,24,0.00,CLR,OVC,0.00,WeatherDisplay:10.37,2013-12-07 09:26:00,
2013-12-07 04:31:00,-5.6,-33.2,28.76,SW,234,3.1,3.5,24,0.00,CLR,OVC,0.00,WeatherDisplay:10.37,2013-12-07 09:31:00,
2013-12-07 04:36:00,-5.3,-32.9,28.76,SW,235,2.7,6.7,24,0.00,CLR,OVC,0.00,WeatherDisplay:10.37,2013-12-07 09:36:00,
2013-12-07 04:41:00,-5.1,-32.7,28.76,WSW,238,3.6,5.8,24,0.00,CLR,OVC,0.00,WeatherDisplay:10.37,2013-12-07 09:41:00,
2013-12-07 04:46:00,-4.7,-32.4,28.76,WSW,251,0.0,5.8,24,0.00,CLR,OVC,0.00,WeatherDisplay:10.37,2013-12-07 09:46:00,
2013-12-07 04:51:00,-4.7,-32.4,28.76,WSW,256,3.6,5.8,24,0.00,CLR,OVC,0.00,WeatherDisplay:10.37,2013-12-07 09:51:00,
2013-12-07 04:56:00,-4.7,-32.4,28.76,WSW,237,0.0,4.6,24,0.00,CLR,OVC,0.00,WeatherDisplay:10.37,2013-12-07 09:56:00,
2013-12-07 05:01:00,-4.7,-32.4,28.76,SW,232,4.5,5.8,24,0.00,CLR,OVC,0.00,WeatherDisplay:10.37,2013-12-07 10:01:00,
2013-12-07 05:06:00,-4.9,-32.6,28.76,WSW,250,0.0,3.5,24,0.00,CLR,OVC,0.00,WeatherDisplay:10.37,2013-12-07 10:06:00,
2013-12-07 05:11:00,-4.7,-32.4,28.76,SW,234,3.6,3.6,24,0.00,CLR,OVC,0.00,WeatherDisplay:10.37,2013-12-07 10:11:00,
2013-12-07 05:16:00,-4.7,-32.4,28.79,WSW,242,4.0,5.8,24,0.00,CLR,OVC,0.00,WeatherDisplay:10.37,2013-12-07 10:16:00,
2013-12-07 05:21:00,-4.7,-32.4,28.79,WSW,254,4.0,5.8,24,0.00,CLR,OVC,0.00,WeatherDisplay:10.37,2013-12-07 10:21:00,
2013-12-07 05:26:00,-4.7,-32.4,28.79,West,269,2.7,3.5,24,0.00,CLR,OVC,0.00,WeatherDisplay:10.37,2013-12-07 10:26:00,
2013-12-07 05:31:00,-4.7,-32.4,28.79,SW,232,0.0,2.2,24,0.00,CLR,OVC,0.00,WeatherDisplay:10.37,2013-12-07 10:31:00,
2013-12-07 05:36:00,-4.9,-32.6,28.79,SW,221,0.0,5.8,24,0.00,CLR,OVC,0.00,WeatherDisplay:10.37,2013-12-07 10:36:00,
2013-12-07 05:41:00,-5.1,-32.7,28.79,WSW,244,0.0,3.5,24,0.00,CLR,OVC,0.00,WeatherDisplay:10.37,2013-12-07 10:41:00,
2013-12-07 05:46:00,-5.3,-32.9,28.79,WSW,251,0.0,4.6,24,0.00,CLR,OVC,0.00,WeatherDisplay:10.37,2013-12-07 10:46:00,
2013-12-07 05:51:00,-5.3,-32.9,28.79,WSW,246,0.0,3.5,24,0.00,CLR,OVC,0.00,WeatherDisplay:10.37,2013-12-07 10:51:00,
2013-12-07 05:56:00,-5.6,-33.2,28.79,West,273,4.5,8.1,24,0.00,CLR,OVC,0.00,WeatherDisplay:10.37,2013-12-07 10:56:00,
2013-12-07 06:01:00,-5.6,-33.2,28.79,SW,231,0.0,3.5,24,0.00,CLR,OVC,0.00,WeatherDisplay:10.37,2013-12-07 11:01:00,
2013-12-07 06:06:00,-6.0,-33.5,28.79,WSW,240,0.0,3.5,24,0.00,CLR,OVC,0.00,WeatherDisplay:10.37,2013-12-07 11:06:00,
2013-12-07 06:11:00,-6.3,-33.8,28.79,West,262,0.0,0.0,24,0.00,CLR,OVC,0.00,WeatherDisplay:10.37,2013-12-07 11:11:00,
2013-12-07 06:16:00,-6.9,-34.3,28.79,WSW,249,2.2,0.0,24,0.00,CLR,OVC,0.00,WeatherDisplay:10.37,2013-12-07 11:16:00,
2013-12-07 06:21:00,-7.2,-34.6,28.79,WSW,241,0.0,0.0,24,0.00,CLR,OVC,0.00,WeatherDisplay:10.37,2013-12-07 11:21:00,
2013-12-07 06:26:00,-7.2,-34.6,28.79,West,265,0.0,3.5,24,0.00,CLR,OVC,0.00,WeatherDisplay:10.37,2013-12-07 11:26:00,
2013-12-07 06:31:00,-7.2,-34.6,28.79,WSW,242,0.0,3.5,24,0.00,CLR,OVC,0.00,WeatherDisplay:10.37,2013-12-07 11:31:00,
2013-12-07 06:36:00,-7.4,-34.8,28.79,WSW,241,0.0,0.0,24,0.00,CLR,OVC,0.00,WeatherDisplay:10.37,2013-12-07 11:36:00,
2013-12-07 06:41:00,-7.2,-34.6,28.79,West,263,3.1,0.0,24,0.00,CLR,OVC,0.00,WeatherDisplay:10.37,2013-12-07 11:41:00,
2013-12-07 06:46:00,-7.6,-34.9,28.79,WSW,257,2.2,3.5,24,0.00,CLR,OVC,0.00,WeatherDisplay:10.37,2013-12-07 11:46:00,
2013-12-07 06:51:00,-7.8,-35.1,28.79,WSW,253,2.7,5.8,24,0.00,CLR,OVC,0.00,WeatherDisplay:10.37,2013-12-07 11:51:00,
2013-12-07 06:56:00,-7.8,-35.1,28.79,WSW,249,0.0,4.6,24,0.00,CLR,OVC,0.00,WeatherDisplay:10.37,2013-12-07 11:56:00,
2013-12-07 07:01:00,-7.4,-34.8,28.79,WNW,289,2.7,0.0,24,0.00,CLR,OVC,0.00,WeatherDisplay:10.37,2013-12-07 12:01:00,
2013-12-07 07:06:00,-7.2,-34.6,28.79,SW,226,3.6,3.6,24,0.00,CLR,OVC,0.00,WeatherDisplay:10.37,2013-12-07 12:06:00,
2013-12-07 07:11:00,-7.1,-34.4,28.79,West,263,2.2,2.7,24,0.00,CLR,OVC,0.00,WeatherDisplay:10.37,2013-12-07 12:11:00,
2013-12-07 07:16:00,-7.1,-34.4,28.79,WSW,240,2.7,5.8,24,0.00,CLR,OVC,0.00,WeatherDisplay:10.37,2013-12-07 12:16:00,
2013-12-07 07:21:00,-7.2,-34.6,28.79,WSW,251,0.0,5.8,24,0.00,CLR,OVC,0.00,WeatherDisplay:10.37,2013-12-07 12:21:00,
2013-12-07 07:26:00,-7.2,-34.6,28.79,WSW,248,2.2,5.8,24,0.00,CLR,OVC,0.00,WeatherDisplay:10.37,2013-12-07 12:26:00,
2013-12-07 07:31:00,-7.2,-34.6,28.79,WSW,248,0.0,3.5,24,0.00,CLR,OVC,0.00,WeatherDisplay:10.37,2013-12-07 12:31:00,
2013-12-07 07:36:00,-7.1,-34.4,28.79,West,269,2.7,5.8,24,0.00,CLR,OVC,0.00,WeatherDisplay:10.37,2013-12-07 12:36:00,
2013-12-07 07:41:00,-7.1,-34.4,28.79,WSW,237,0.0,4.6,24,0.00,CLR,OVC,0.00,WeatherDisplay:10.37,2013-12-07 12:41:00,
2013-12-07 07:46:00,-7.2,-34.6,28.79,West,277,3.1,5.8,24,0.00,CLR,OVC,0.00,WeatherDisplay:10.37,2013-12-07 12:46:00,
2013-12-07 07:51:00,-7.4,-34.8,28.79,WSW,255,0.0,4.6,24,0.00,CLR,OVC,0.00,WeatherDisplay:10.37,2013-12-07 12:51:00,
2013-12-07 07:56:00,-7.8,-35.1,28.79,West,270,0.0,5.8,24,0.00,CLR,OVC,0.00,WeatherDisplay:10.37,2013-12-07 12:56:00,
2013-12-07 08:01:00,-8.0,-35.2,28.79,West,262,3.6,5.8,24,0.00,CLR,OVC,0.00,WeatherDisplay:10.37,2013-12-07 13:01:00,
2013-12-07 08:06:00,-7.4,-34.8,28.79,WSW,246,0.0,3.5,24,0.00,CLR,OVC,0.00,WeatherDisplay:10.37,2013-12-07 13:06:00,
2013-12-07 08:11:00,-7.6,-34.9,28.79,SW,235,0.0,5.8,24,0.00,CLR,OVC,0.00,WeatherDisplay:10.37,2013-12-07 13:11:00,
2013-12-07 10:25:00,-7.4,-34.8,28.85,North,0,0.0,4.6,24,0.00,CLR,OVC,0.00,WeatherDisplay:10.37,2013-12-07 15:25:00,
2013-12-07 10:30:00,3.9,-24.9,28.85,WSW,239,3.6,5.8,24,0.00,CLR,OVC,0.00,WeatherDisplay:10.37,2013-12-07 15:30:00,
2013-12-07 10:35:00,4.5,-24.5,28.85,WSW,242,7.2,8.1,24,0.00,CLR,OVC,0.00,WeatherDisplay:10.37,2013-12-07 15:35:00,
2013-12-07 10:40:00,4.3,-24.6,28.85,WSW,252,5.8,10.4,24,0.00,CLR,OVC,0.00,WeatherDisplay:10.37,2013-12-07 15:40:00,
2013-12-07 10:45:00,4.6,-24.3,28.85,WSW,243,4.9,5.8,24,0.00,CLR,OVC,0.00,WeatherDisplay:10.37,2013-12-07 15:45:00,
2013-12-07 10:50:00,4.8,-24.2,28.85,WSW,247,6.3,6.3,24,0.00,CLR,OVC,0.00,WeatherDisplay:10.37,2013-12-07 15:50:00,
2013-12-07 10:55:00,5.4,-23.7,28.85,West,274,5.4,9.2,24,0.00,CLR,OVC,0.00,WeatherDisplay:10.37,2013-12-07 15:55:00,
2013-12-07 11:00:00,5.9,-23.2,28.85,West,259,3.6,5.8,24,0.00,CLR,OVC,0.00,WeatherDisplay:10.37,2013-12-07 16:00:00,
2013-12-07 11:05:00,6.3,-22.9,28.85,West,267,4.0,4.6,24,0.00,CLR,OVC,0.00,WeatherDisplay:10.37,2013-12-07 16:05:00,
2013-12-07 11:10:00,7.0,-22.3,28.85,WSW,258,4.9,8.1,24,0.00,CLR,OVC,0.00,WeatherDisplay:10.37,2013-12-07 16:10:00,
2013-12-07 11:15:00,7.7,-21.7,28.85,West,279,8.7,9.2,24,0.00,CLR,OVC,0.00,WeatherDisplay:10.37,2013-12-07 16:15:00,
2013-12-07 11:20:00,7.7,-21.7,28.85,West,264,8.0,8.0,24,0.00,CLR,OVC,0.00,WeatherDisplay:10.37,2013-12-07 16:20:00,
2013-12-07 11:25:00,7.7,-21.7,28.85,NW,305,6.7,6.7,24,0.00,CLR,OVC,0.00,WeatherDisplay:10.37,2013-12-07 16:25:00,
2013-12-07 11:30:00,7.9,-21.5,28.85,WSW,254,7.6,11.5,24,0.00,CLR,OVC,0.00,WeatherDisplay:10.37,2013-12-07 16:30:00,
2013-12-07 11:35:00,8.2,-21.2,28.85,North,11,7.2,9.2,24,0.00,CLR,OVC,0.00,WeatherDisplay:10.37,2013-12-07 16:35:00,
2013-12-07 11:40:00,9.0,-20.6,28.85,WSW,258,4.5,5.8,24,0.00,CLR,OVC,0.00,WeatherDisplay:10.37,2013-12-07 16:40:00,
2013-12-07 11:45:00,9.9,-19.8,28.85,West,259,5.4,5.8,24,0.00,CLR,OVC,0.00,WeatherDisplay:10.37,2013-12-07 16:45:00,
2013-12-07 11:50:00,10.6,-19.2,28.85,West,265,4.5,5.8,24,0.00,CLR,OVC,0.00,WeatherDisplay:10.37,2013-12-07 16:50:00,
2013-12-07 11:55:00,11.7,-18.3,28.85,WSW,250,7.6,8.1,24,0.00,CLR,OVC,0.00,WeatherDisplay:10.37,2013-12-07 16:55:00,
2013-12-07 12:00:00,12.0,-17.9,28.85,West,276,5.4,5.8,24,0.00,CLR,OVC,0.00,WeatherDisplay:10.37,2013-12-07 17:00:00,
2013-12-07 12:05:00,12.0,-17.9,28.85,West,266,4.5,5.8,24,0.00,CLR,OVC,0.00,WeatherDisplay:10.37,2013-12-07 17:05:00,
2013-12-07 12:10:00,12.0,-17.9,28.85,SSE,168,4.5,10.4,24,0.00,CLR,OVC,0.00,WeatherDisplay:10.37,2013-12-07 17:10:00,
2013-12-07 12:15:00,11.3,-18.6,28.85,WSW,238,6.3,8.1,24,0.00,CLR,OVC,0.00,WeatherDisplay:10.37,2013-12-07 17:15:00,
2013-12-07 12:20:00,11.7,-18.3,28.85,SW,216,8.0,12.7,24,0.00,CLR,OVC,0.00,WeatherDisplay:10.37,2013-12-07 17:20:00,
2013-12-07 12:26:00,12.0,-17.9,28.85,WSW,250,4.0,8.1,24,0.00,CLR,OVC,0.00,WeatherDisplay:10.37,2013-12-07 17:26:00,
2013-12-07 12:31:00,13.3,-16.9,28.85,West,279,4.9,5.8,24,0.00,CLR,OVC,0.00,WeatherDisplay:10.37,2013-12-07 17:31:00,
2013-12-07 12:36:00,13.5,-16.7,28.85,SW,221,5.4,8.1,24,0.00,CLR,OVC,0.00,WeatherDisplay:10.37,2013-12-07 17:36:00,
2013-12-07 12:41:00,12.4,-17.6,28.85,NNW,334,5.4,8.1,24,0.00,CLR,OVC,0.00,WeatherDisplay:10.37,2013-12-07 17:41:00,
2013-12-07 12:46:00,12.6,-17.5,28.85,West,281,10.1,11.5,24,0.00,CLR,OVC,0.00,WeatherDisplay:10.37,2013-12-07 17:46:00,
2013-12-07 12:51:00,13.3,-16.9,28.85,West,269,3.6,5.8,24,0.00,CLR,OVC,0.00,WeatherDisplay:10.37,2013-12-07 17:51:00,
2013-12-07 12:56:00,14.0,-16.2,28.85,WNW,287,7.6,10.4,24,0.00,CLR,OVC,0.00,WeatherDisplay:10.37,2013-12-07 17:56:00,
2013-12-07 13:01:00,13.6,-16.5,28.85,West,275,6.3,6.3,24,0.00,CLR,OVC,0.00,WeatherDisplay:10.37,2013-12-07 18:01:00,
2013-12-07 13:06:00,14.0,-16.2,28.85,South,178,6.3,8.1,24,0.00,CLR,OVC,0.00,WeatherDisplay:10.37,2013-12-07 18:06:00,
2013-12-07 13:11:00,14.4,-15.9,28.85,SW,229,7.2,11.5,24,0.00,CLR,OVC,0.00,WeatherDisplay:10.37,2013-12-07 18:11:00,
2013-12-07 13:16:00,14.5,-15.8,28.85,WSW,243,4.5,8.1,24,0.00,CLR,OVC,0.00,WeatherDisplay:10.37,2013-12-07 18:16:00,
2013-12-07 13:21:00,14.4,-15.9,28.85,WNW,293,7.6,10.4,24,0.00,CLR,OVC,0.00,WeatherDisplay:10.37,2013-12-07 18:21:00,
2013-12-07 13:26:00,13.5,-16.7,28.85,NW,313,6.7,9.2,24,0.00,CLR,OVC,0.00,WeatherDisplay:10.37,2013-12-07 18:26:00,
2013-12-07 13:31:00,13.8,-16.4,28.85,SW,221,4.9,5.8,24,0.00,CLR,OVC,0.00,WeatherDisplay:10.37,2013-12-07 18:31:00,
2013-12-07 13:36:00,16.0,-15.4,28.85,SW,236,8.3,10.4,23,0.00,CLR,OVC,0.00,WeatherDisplay:10.37,2013-12-07 18:36:00,
2013-12-07 13:41:00,15.1,-16.1,28.85,West,271,4.0,8.1,23,0.00,CLR,OVC,0.00,WeatherDisplay:10.37,2013-12-07 18:41:00,
2013-12-07 13:46:00,14.0,-16.2,28.85,West,273,4.0,9.2,24,0.00,CLR,OVC,0.00,WeatherDisplay:10.37,2013-12-07 18:46:00,
2013-12-07 13:51:00,14.9,-15.5,28.85,West,266,8.0,8.1,24,0.00,CLR,OVC,0.00,WeatherDisplay:10.37,2013-12-07 18:51:00,
2013-12-07 13:56:00,12.6,-17.5,28.85,West,280,4.0,8.0,24,0.00,CLR,OVC,0.00,WeatherDisplay:10.37,2013-12-07 18:56:00,
2013-12-07 14:13:00,14.9,-15.5,28.82,West,265,3.6,5.8,24,0.00,CLR,OVC,0.00,WeatherDisplay:10.37,2013-12-07 19:13:00,